Time;durP1;ratioP1;P1;durP2;ratioP2;P2;SDS_P1;SDS_P2;PMS_P1;PMS_P2;Temp;Humidity;BMP_temperature;BMP_pressure;BME280_temperature;BME280_humidity;BME280_pressure;Samples;Min_cycle;Max_cycle;Signal;HPM_P1;HPM_P2
2021/04/29 00:00:31;;;;;;;11.00;7.60;;;9.90;49.80;;;;;;5033808;28;20238;-70
2021/04/29 00:02:57;;;;;;;12.43;7.77;;;9.90;50.00;;;;;;5034048;28;20589;-71
2021/04/29 00:05:27;;;;;;;12.57;7.63;;;9.80;50.10;;;;;;5034077;28;20226;-71
2021/04/29 00:07:53;;;;;;;12.03;7.90;;;9.90;50.50;;;;;;5032640;28;20248;-72
2021/04/29 00:10:24;;;;;;;13.53;8.63;;;9.70;50.50;;;;;;5034052;28;20295;-71
2021/04/29 00:12:51;;;;;;;11.03;7.73;;;9.70;50.70;;;;;;5031906;28;20650;-71
2021/04/29 00:15:18;;;;;;;12.50;7.40;;;9.70;50.90;;;;;;5030840;28;20313;-72
2021/04/29 00:17:45;;;;;;;15.80;8.60;;;9.60;51.20;;;;;;5029499;28;20215;-72
2021/04/29 00:20:14;;;;;;;14.53;8.30;;;9.60;51.40;;;;;;5033340;28;20310;-71
2021/04/29 00:22:40;;;;;;;12.97;8.20;;;9.60;51.40;;;;;;5033131;28;20268;-70
2021/04/29 00:25:08;;;;;;;12.03;7.20;;;9.50;51.60;;;;;;5030926;28;20222;-70
2021/04/29 00:27:36;;;;;;;17.37;8.80;;;9.50;51.90;;;;;;5033493;28;20297;-70
2021/04/29 00:30:04;;;;;;;13.33;8.87;;;9.50;52.00;;;;;;5031484;28;20703;-70
2021/04/29 00:32:30;;;;;;;14.63;8.87;;;9.40;52.10;;;;;;5030261;28;20307;-70
2021/04/29 00:34:56;;;;;;;13.30;8.57;;;9.40;52.30;;;;;;5032517;28;20214;-69
2021/04/29 00:37:23;;;;;;;14.90;8.57;;;9.40;52.60;;;;;;5029729;28;20293;-70
2021/04/29 00:39:49;;;;;;;12.17;8.60;;;9.30;52.70;;;;;;5032950;28;20244;-70
2021/04/29 00:42:15;;;;;;;15.23;8.47;;;9.30;52.90;;;;;;5027552;28;20301;-70
2021/04/29 00:44:43;;;;;;;13.63;8.70;;;9.30;53.10;;;;;;5032251;28;20312;-71
2021/04/29 00:47:09;;;;;;;15.33;9.07;;;9.20;53.20;;;;;;5029253;28;20281;-72
2021/04/29 00:49:36;;;;;;;13.10;8.37;;;9.20;53.30;;;;;;5032356;28;20214;-72
2021/04/29 00:52:03;;;;;;;11.57;8.57;;;9.20;53.50;;;;;;5032462;28;20297;-71
2021/04/29 00:54:29;;;;;;;14.00;8.67;;;9.10;53.60;;;;;;5033110;28;20213;-71
2021/04/29 00:56:55;;;;;;;13.57;8.73;;;9.10;53.80;;;;;;5032253;28;20835;-71
2021/04/29 00:59:22;;;;;;;12.00;8.40;;;9.10;54.00;;;;;;5032188;28;20223;-71
2021/04/29 01:01:55;;;;;;;14.90;9.07;;;9.10;54.20;;;;;;5031508;28;20203;-71
2021/04/29 01:04:26;;;;;;;18.03;9.70;;;9.00;54.30;;;;;;5029311;28;20207;-70
2021/04/29 01:06:58;;;;;;;15.17;9.30;;;9.00;54.60;;;;;;5032785;28;20214;-71
2021/04/29 01:09:30;;;;;;;13.83;9.10;;;9.00;54.80;;;;;;5029647;28;20216;-72
2021/04/29 01:12:03;;;;;;;18.33;9.93;;;9.00;55.10;;;;;;5030672;28;20242;-72
2021/04/29 01:14:33;;;;;;;14.93;8.83;;;8.90;55.10;;;;;;5030839;28;20637;-70
2021/04/29 01:17:01;;;;;;;12.63;8.73;;;8.90;55.60;;;;;;5032906;28;20241;-71
2021/04/29 01:19:41;;;;;;;15.60;8.50;;;8.90;56.00;;;;;;5032293;28;20214;-71
2021/04/29 01:22:09;;;;;;;15.27;9.07;;;8.90;56.20;;;;;;5031926;28;20203;-70
2021/04/29 01:24:44;;;;;;;15.27;9.07;;;8.90;56.40;;;;;;5032342;28;20206;-70
2021/04/29 01:27:13;;;;;;;18.43;9.00;;;8.90;56.70;;;;;;5029168;28;20718;-70
2021/04/29 01:29:42;;;;;;;12.30;9.20;;;8.90;56.90;;;;;;5032082;28;20657;-71
2021/04/29 01:32:10;;;;;;;14.00;8.53;;;9.00;57.20;;;;;;5030154;28;20242;-70
2021/04/29 01:34:38;;;;;;;15.57;8.43;;;9.00;57.30;;;;;;5032604;28;20297;-70
2021/04/29 01:37:06;;;;;;;12.70;8.60;;;9.00;58.10;;;;;;5029966;28;20209;-71
2021/04/29 01:39:34;;;;;;;15.80;9.30;;;9.00;57.60;;;;;;5032466;28;20229;-70
2021/04/29 01:42:01;;;;;;;15.20;8.60;;;9.00;57.80;;;;;;5035074;28;20241;-70
2021/04/29 01:44:28;;;;;;;13.50;8.93;;;9.00;57.90;;;;;;5036246;28;20214;-71
2021/04/29 01:46:58;;;;;;;16.77;10.20;;;9.00;58.00;;;;;;5035257;28;20218;-70
2021/04/29 01:49:24;;;;;;;14.30;9.10;;;9.00;58.00;;;;;;5036510;28;20604;-70
2021/04/29 01:51:52;;;;;;;12.77;8.83;;;9.00;57.90;;;;;;5035030;28;20218;-71
2021/04/29 01:54:19;;;;;;;14.53;9.73;;;9.00;58.00;;;;;;5033843;28;20706;-71
2021/04/29 01:56:46;;;;;;;16.00;9.67;;;9.00;58.00;;;;;;5033884;28;20302;-71
2021/04/29 01:59:14;;;;;;;14.37;9.70;;;9.00;58.20;;;;;;5037680;28;20679;-71
2021/04/29 02:01:44;;;;;;;15.73;9.97;;;9.00;58.80;;;;;;5035609;28;20221;-72
2021/04/29 02:04:12;;;;;;;17.93;9.73;;;9.00;58.30;;;;;;5033472;28;20214;-71
2021/04/29 02:06:39;;;;;;;14.30;10.23;;;9.00;58.50;;;;;;5034242;28;20226;-70
2021/04/29 02:09:07;;;;;;;13.97;9.47;;;9.00;58.80;;;;;;5032215;28;20206;-70
2021/04/29 02:11:37;;;;;;;15.17;9.27;;;9.00;59.10;;;;;;5031378;28;20214;-71
2021/04/29 02:14:06;;;;;;;14.13;9.27;;;9.00;59.30;;;;;;5034985;28;20226;-70
2021/04/29 02:16:37;;;;;;;14.60;9.20;;;9.00;59.40;;;;;;5035440;28;20621;-71
2021/04/29 02:19:05;;;;;;;14.90;9.63;;;9.00;59.70;;;;;;5036338;28;20213;-70
2021/04/29 02:21:33;;;;;;;14.23;9.40;;;9.00;59.90;;;;;;5034299;28;20234;-71
2021/04/29 02:23:59;;;;;;;14.00;9.60;;;8.90;60.00;;;;;;5030080;28;20198;-70
2021/04/29 02:26:26;;;;;;;13.97;9.67;;;8.90;60.30;;;;;;5035159;28;20230;-71
2021/04/29 02:28:54;;;;;;;18.93;10.37;;;8.90;60.50;;;;;;5032762;28;20207;-70
2021/04/29 02:31:23;;;;;;;18.33;9.77;;;8.90;60.80;;;;;;5032017;28;20207;-70
2021/04/29 02:33:50;;;;;;;14.30;10.13;;;8.80;61.10;;;;;;5035983;28;20203;-71
2021/04/29 02:36:18;;;;;;;13.83;8.87;;;8.80;61.30;;;;;;5035943;28;20207;-70
2021/04/29 02:38:45;;;;;;;17.23;10.33;;;8.80;61.60;;;;;;5035912;28;20234;-71
2021/04/29 02:41:12;;;;;;;12.00;9.37;;;8.70;62.10;;;;;;5036222;28;20609;-71
2021/04/29 02:43:39;;;;;;;14.43;9.67;;;8.80;62.60;;;;;;5035946;28;20313;-71
2021/04/29 02:46:05;;;;;;;15.30;9.87;;;8.70;62.80;;;;;;5033604;28;20651;-70
2021/04/29 02:48:32;;;;;;;15.53;10.33;;;8.70;63.20;;;;;;5033587;28;20547;-71
2021/04/29 02:51:01;;;;;;;14.73;9.40;;;8.70;63.90;;;;;;5035426;28;20234;-71
2021/04/29 02:53:29;;;;;;;15.23;9.13;;;8.60;64.00;;;;;;5030012;28;20202;-71
2021/04/29 02:55:55;;;;;;;15.33;9.40;;;8.60;64.70;;;;;;5035561;28;20252;-71
2021/04/29 02:58:22;;;;;;;14.10;9.57;;;8.60;65.30;;;;;;5033209;28;20211;-71
2021/04/29 03:00:50;;;;;;;15.40;9.80;;;8.60;65.80;;;;;;5037273;28;20217;-71
2021/04/29 03:03:16;;;;;;;17.07;9.97;;;8.60;66.60;;;;;;5038627;28;20307;-71
2021/04/29 03:05:42;;;;;;;14.53;9.63;;;8.60;67.40;;;;;;5037963;28;20770;-72
2021/04/29 03:08:09;;;;;;;14.97;10.00;;;8.50;68.10;;;;;;5039032;28;20644;-71
2021/04/29 03:10:37;;;;;;;15.20;9.63;;;8.50;69.20;;;;;;5036245;28;20582;-71
2021/04/29 03:13:03;;;;;;;17.17;10.40;;;8.50;70.20;;;;;;5040154;28;20203;-71
2021/04/29 03:15:30;;;;;;;17.60;10.73;;;8.50;71.00;;;;;;5039710;28;20317;-71
2021/04/29 03:17:56;;;;;;;14.30;9.70;;;8.50;72.50;;;;;;5038492;28;20298;-71
2021/04/29 03:20:23;;;;;;;14.47;10.17;;;8.50;74.00;;;;;;5037922;28;20217;-71
2021/04/29 03:22:49;;;;;;;14.97;10.43;;;8.40;75.10;;;;;;5037921;28;20237;-71
2021/04/29 03:25:15;;;;;;;15.87;10.43;;;8.40;76.30;;;;;;5032755;28;20203;-73
2021/04/29 03:27:43;;;;;;;17.87;10.67;;;8.40;77.20;;;;;;5037372;28;20238;-71
2021/04/29 03:30:10;;;;;;;18.27;11.07;;;8.40;78.20;;;;;;5034453;28;20199;-70
2021/04/29 03:32:36;;;;;;;13.90;10.87;;;8.40;79.30;;;;;;5033634;28;20298;-71
2021/04/29 03:35:04;;;;;;;18.97;11.37;;;8.30;80.10;;;;;;5035458;28;20206;-71
2021/04/29 03:37:30;;;;;;;15.80;10.77;;;8.30;81.00;;;;;;5032939;28;20260;-71
2021/04/29 03:39:58;;;;;;;15.60;10.60;;;8.30;82.10;;;;;;5035150;28;20211;-70
2021/04/29 03:42:25;;;;;;;15.80;10.73;;;8.30;83.20;;;;;;5034502;28;20203;-71
2021/04/29 03:44:52;;;;;;;18.00;11.30;;;8.30;84.20;;;;;;5035119;28;20207;-71
2021/04/29 03:47:18;;;;;;;14.40;11.20;;;8.30;85.00;;;;;;5032207;28;20317;-71
2021/04/29 03:49:44;;;;;;;14.97;10.00;;;8.30;85.70;;;;;;5033343;28;20638;-70
2021/04/29 03:52:11;;;;;;;14.47;9.83;;;8.30;86.20;;;;;;5033122;28;20603;-70
2021/04/29 03:54:37;;;;;;;17.33;10.17;;;8.30;86.70;;;;;;5032124;28;20211;-71
2021/04/29 03:57:04;;;;;;;17.27;10.20;;;8.30;87.20;;;;;;5034804;28;20202;-70
2021/04/29 03:59:32;;;;;;;14.97;9.67;;;8.40;87.60;;;;;;5033454;28;20249;-70
2021/04/29 04:01:59;;;;;;;16.60;10.43;;;8.40;87.90;;;;;;5033745;28;20741;-70
2021/04/29 04:04:25;;;;;;;17.63;10.73;;;8.40;88.50;;;;;;5028214;28;20229;-71
2021/04/29 04:06:53;;;;;;;15.83;10.30;;;8.40;89.30;;;;;;5034269;28;20222;-70
2021/04/29 04:09:19;;;;;;;15.63;10.30;;;8.40;89.70;;;;;;5033185;28;20280;-71
2021/04/29 04:11:46;;;;;;;15.70;10.47;;;8.50;90.10;;;;;;5030687;28;20293;-71
2021/04/29 04:14:12;;;;;;;18.00;10.87;;;8.50;90.30;;;;;;5032710;28;20342;-72
2021/04/29 04:16:38;;;;;;;15.37;9.90;;;8.50;90.80;;;;;;5034513;28;20209;-71
2021/04/29 04:19:05;;;;;;;17.47;9.93;;;8.60;90.70;;;;;;5029993;28;20294;-71
2021/04/29 04:21:32;;;;;;;13.80;10.23;;;8.60;90.80;;;;;;5030461;28;20230;-70
2021/04/29 04:23:58;;;;;;;17.33;11.00;;;8.60;91.00;;;;;;5033520;28;20214;-70
2021/04/29 04:26:25;;;;;;;14.83;10.20;;;8.70;91.20;;;;;;5033144;28;20224;-69
2021/04/29 04:28:51;;;;;;;14.47;10.33;;;8.70;91.30;;;;;;5030814;28;20206;-71
2021/04/29 04:31:17;;;;;;;15.30;10.00;;;8.70;91.40;;;;;;5033433;28;20671;-71
2021/04/29 04:33:44;;;;;;;15.10;9.83;;;8.70;91.50;;;;;;5033213;28;20242;-71
2021/04/29 04:36:11;;;;;;;17.93;10.67;;;8.70;91.60;;;;;;5033570;28;20252;-70
2021/04/29 04:38:37;;;;;;;14.17;9.50;;;8.70;91.60;;;;;;5033242;28;20237;-71
2021/04/29 04:41:04;;;;;;;14.30;10.40;;;8.70;91.60;;;;;;5028446;28;20309;-70
2021/04/29 04:43:30;;;;;;;15.20;10.00;;;8.70;91.60;;;;;;5032480;28;20213;-70
2021/04/29 04:45:59;;;;;;;14.90;9.60;;;8.70;91.80;;;;;;5032873;28;20314;-70
2021/04/29 04:48:25;;;;;;;16.13;10.37;;;8.70;91.90;;;;;;5030122;28;20571;-70
2021/04/29 04:50:51;;;;;;;16.57;10.93;;;8.70;92.00;;;;;;5031356;28;20234;-70
2021/04/29 04:53:19;;;;;;;15.17;10.67;;;8.70;92.30;;;;;;5027932;28;20357;-70
2021/04/29 04:55:47;;;;;;;12.77;9.90;;;8.70;92.50;;;;;;5028130;28;20203;-70
2021/04/29 04:58:14;;;;;;;13.43;9.90;;;8.80;93.10;;;;;;5030286;28;20207;-71
2021/04/29 05:00:41;;;;;;;16.53;10.40;;;8.70;92.80;;;;;;5031589;28;20218;-70
2021/04/29 05:03:07;;;;;;;15.67;11.00;;;8.70;93.10;;;;;;5029913;28;20621;-70
2021/04/29 05:05:34;;;;;;;15.80;10.43;;;8.60;93.40;;;;;;5031579;28;20227;-70
2021/04/29 05:08:01;;;;;;;17.73;11.90;;;8.60;93.90;;;;;;5032089;28;20203;-70
2021/04/29 05:10:30;;;;;;;15.30;11.00;;;8.60;94.10;;;;;;5031823;28;20216;-67
2021/04/29 05:12:56;;;;;;;15.60;11.53;;;8.60;94.50;;;;;;5031422;28;20294;-69
2021/04/29 05:15:22;;;;;;;13.87;10.43;;;8.60;94.80;;;;;;5027281;28;20691;-68
2021/04/29 05:17:50;;;;;;;19.87;12.77;;;8.60;95.10;;;;;;5031629;28;20298;-68
2021/04/29 05:20:16;;;;;;;18.73;11.77;;;8.70;95.40;;;;;;5028461;28;20211;-67
2021/04/29 05:22:43;;;;;;;16.77;11.10;;;8.70;95.50;;;;;;5031121;28;20289;-68
2021/04/29 05:25:09;;;;;;;20.33;12.30;;;8.80;95.60;;;;;;5031384;28;20206;-68
2021/04/29 05:27:37;;;;;;;21.63;12.53;;;8.80;95.80;;;;;;5031712;28;20280;-68
2021/04/29 05:30:04;;;;;;;21.83;11.60;;;8.80;95.90;;;;;;5031073;28;20218;-69
2021/04/29 05:32:31;;;;;;;21.17;11.83;;;8.80;96.30;;;;;;5031225;28;20248;-67
2021/04/29 05:34:57;;;;;;;19.20;11.53;;;8.90;96.30;;;;;;5031237;28;20216;-68
2021/04/29 05:37:24;;;;;;;17.90;11.40;;;9.00;96.40;;;;;;5029910;28;20209;-67
2021/04/29 05:39:51;;;;;;;19.13;11.70;;;9.00;96.40;;;;;;5030848;28;20584;-69
2021/04/29 05:42:17;;;;;;;16.03;11.43;;;9.10;96.50;;;;;;5031601;28;20214;-69
2021/04/29 05:44:44;;;;;;;14.57;11.27;;;9.20;96.60;;;;;;5031520;28;20234;-69
2021/04/29 05:47:11;;;;;;;17.77;10.77;;;9.30;96.60;;;;;;5026401;28;20231;-71
2021/04/29 05:49:37;;;;;;;18.60;11.57;;;9.30;96.50;;;;;;5029331;28;20287;-72
2021/04/29 05:52:04;;;;;;;18.57;11.37;;;9.40;96.50;;;;;;5032853;28;20203;-71
2021/04/29 05:54:33;;;;;;;16.93;11.17;;;9.50;96.50;;;;;;5032673;28;20670;-69
2021/04/29 05:56:59;;;;;;;21.37;10.90;;;9.60;96.50;;;;;;5032836;28;20211;-70
2021/04/29 05:59:26;;;;;;;15.10;11.27;;;9.80;96.30;;;;;;5032221;28;20597;-70
2021/04/29 06:01:53;;;;;;;16.63;11.20;;;9.90;95.90;;;;;;5032450;28;20210;-71
2021/04/29 06:04:20;;;;;;;15.00;11.03;;;10.00;95.00;;;;;;5032595;28;20691;-68
2021/04/29 06:06:47;;;;;;;19.40;11.57;;;10.10;94.80;;;;;;5032476;28;20230;-70
2021/04/29 06:09:14;;;;;;;16.30;10.93;;;10.10;94.70;;;;;;5033852;28;20222;-69
2021/04/29 06:11:40;;;;;;;18.07;10.40;;;10.20;94.70;;;;;;5032681;28;20236;-71
2021/04/29 06:14:07;;;;;;;19.83;11.40;;;10.30;94.50;;;;;;5032618;28;20596;-70
2021/04/29 06:16:34;;;;;;;17.60;11.23;;;10.50;94.50;;;;;;5032401;28;20313;-69
2021/04/29 06:19:01;;;;;;;18.13;10.87;;;10.50;94.10;;;;;;5028499;28;20210;-69
2021/04/29 06:21:28;;;;;;;17.33;10.67;;;10.60;94.10;;;;;;5030825;28;20211;-71
2021/04/29 06:23:55;;;;;;;17.57;11.17;;;10.70;93.90;;;;;;5032518;28;20739;-67
2021/04/29 06:26:22;;;;;;;16.77;11.50;;;10.80;93.80;;;;;;5032517;28;20230;-69
2021/04/29 06:28:49;;;;;;;19.40;12.60;;;10.90;93.70;;;;;;5036103;28;20457;-68
2021/04/29 06:31:16;;;;;;;18.73;12.00;;;10.90;93.60;;;;;;5035442;28;20355;-69
2021/04/29 06:33:43;;;;;;;14.40;11.03;;;11.00;93.60;;;;;;5036082;28;20250;-70
2021/04/29 06:36:10;;;;;;;17.47;10.97;;;11.10;93.30;;;;;;5036922;28;20202;-71
2021/04/29 06:38:36;;;;;;;14.90;10.70;;;11.20;93.20;;;;;;5036313;28;20213;-70
2021/04/29 06:41:03;;;;;;;14.10;10.67;;;11.20;92.90;;;;;;5035365;28;20562;-69
2021/04/29 06:43:30;;;;;;;15.33;10.87;;;11.20;93.10;;;;;;5033059;28;20214;-69
2021/04/29 06:45:56;;;;;;;17.93;12.00;;;11.20;93.10;;;;;;5034438;28;20236;-69
2021/04/29 06:48:24;;;;;;;12.73;10.33;;;11.20;93.20;;;;;;5035331;28;21341;-69
2021/04/29 06:50:50;;;;;;;16.00;10.80;;;11.30;93.10;;;;;;5033138;28;20373;-67
2021/04/29 06:53:18;;;;;;;14.40;11.23;;;11.30;93.20;;;;;;5034677;28;20207;-68
2021/04/29 06:55:44;;;;;;;13.53;11.13;;;11.40;93.10;;;;;;5031925;28;20324;-69
2021/04/29 06:58:10;;;;;;;13.97;11.23;;;11.50;92.80;;;;;;5035106;28;20568;-68
2021/04/29 07:00:37;;;;;;;17.83;11.50;;;11.60;92.80;;;;;;5030649;28;20581;-69
2021/04/29 07:03:04;;;;;;;14.17;11.57;;;11.80;92.70;;;;;;5031757;28;20773;-68
2021/04/29 07:05:32;;;;;;;14.10;10.33;;;11.90;92.30;;;;;;5033746;28;20209;-69
2021/04/29 07:07:58;;;;;;;14.40;10.47;;;12.00;92.10;;;;;;5036486;28;20692;-71
2021/04/29 07:10:26;;;;;;;17.63;11.43;;;12.10;91.60;;;;;;5035169;28;20345;-73
2021/04/29 07:12:52;;;;;;;19.13;11.27;;;12.20;91.10;;;;;;5035762;28;20198;-71
2021/04/29 07:15:20;;;;;;;13.47;11.13;;;12.20;91.00;;;;;;5035318;28;20279;-72
2021/04/29 07:17:47;;;;;;;16.10;10.70;;;12.40;90.80;;;;;;5036220;28;20245;-69
2021/04/29 07:20:14;;;;;;;12.73;10.63;;;12.50;90.10;;;;;;5036425;28;20206;-71
2021/04/29 07:22:40;;;;;;;16.23;11.00;;;12.60;89.70;;;;;;5035751;28;20260;-68
2021/04/29 07:25:08;;;;;;;15.73;9.93;;;12.70;89.50;;;;;;5035908;28;20207;-73
2021/04/29 07:27:36;;;;;;;14.80;10.00;;;12.80;88.20;;;;;;5035526;28;20652;-68
2021/04/29 07:30:05;;;;;;;13.33;10.63;;;12.80;87.80;;;;;;5035952;28;20217;-71
2021/04/29 07:32:31;;;;;;;12.83;10.57;;;12.90;87.40;;;;;;5035919;28;20814;-70
2021/04/29 07:34:58;;;;;;;15.33;11.13;;;12.90;87.00;;;;;;5034275;28;20213;-69
2021/04/29 07:37:26;;;;;;;14.57;10.17;;;13.00;86.80;;;;;;5030189;28;20207;-71
2021/04/29 07:39:52;;;;;;;15.50;10.47;;;13.10;86.00;;;;;;5035347;28;20249;-68
2021/04/29 07:42:19;;;;;;;15.67;10.93;;;13.30;85.80;;;;;;5034894;28;20294;-71
2021/04/29 07:44:46;;;;;;;25.53;10.93;;;13.40;84.70;;;;;;5033207;28;20210;-69
2021/04/29 07:47:13;;;;;;;15.97;10.73;;;13.60;83.50;;;;;;5033791;28;20309;-70
2021/04/29 07:49:39;;;;;;;16.77;9.90;;;13.70;81.30;;;;;;5034496;28;20210;-71
2021/04/29 07:52:06;;;;;;;13.30;9.97;;;13.70;80.60;;;;;;5035275;28;20670;-70
2021/04/29 07:54:35;;;;;;;15.00;10.97;;;13.70;80.30;;;;;;5033582;28;20210;-70
2021/04/29 07:57:01;;;;;;;15.67;11.23;;;14.00;80.20;;;;;;5028367;28;20636;-66
2021/04/29 07:59:29;;;;;;;17.20;11.03;;;14.20;79.20;;;;;;5034167;28;20293;-69
2021/04/29 08:01:57;;;;;;;15.67;11.40;;;14.40;78.50;;;;;;5030522;28;20203;-71
2021/04/29 08:04:23;;;;;;;18.40;10.83;;;14.50;77.40;;;;;;5025974;28;20249;-70
2021/04/29 08:06:50;;;;;;;17.33;11.03;;;14.60;76.60;;;;;;5031107;28;20259;-70
2021/04/29 08:09:17;;;;;;;14.87;11.63;;;14.70;76.20;;;;;;5034594;28;20555;-70
2021/04/29 08:11:43;;;;;;;16.67;11.47;;;14.90;75.50;;;;;;5035415;28;20687;-71
2021/04/29 08:14:09;;;;;;;14.37;10.70;;;15.10;74.20;;;;;;5035091;28;20230;-70
2021/04/29 08:16:36;;;;;;;15.60;10.43;;;15.20;72.90;;;;;;5034583;28;20699;-68
2021/04/29 08:19:03;;;;;;;14.10;9.40;;;15.30;72.00;;;;;;5034406;28;20716;-68
2021/04/29 08:21:30;;;;;;;13.37;10.73;;;15.40;75.40;;;;;;5034602;28;20234;-70
2021/04/29 08:23:58;;;;;;;15.23;10.10;;;15.40;71.20;;;;;;5033978;28;20283;-71
2021/04/29 08:26:24;;;;;;;14.37;10.47;;;15.50;70.30;;;;;;5032303;28;20219;-70
2021/04/29 08:28:51;;;;;;;12.93;9.50;;;15.50;70.10;;;;;;5031269;28;20304;-70
2021/04/29 08:31:18;;;;;;;14.40;10.23;;;15.60;69.20;;;;;;5034075;28;20217;-70
2021/04/29 08:33:45;;;;;;;12.90;9.73;;;15.90;68.50;;;;;;5026173;28;20265;-70
2021/04/29 08:36:12;;;;;;;13.67;10.10;;;16.00;67.20;;;;;;5034114;28;20225;-70
2021/04/29 08:38:39;;;;;;;16.37;10.73;;;16.00;66.60;;;;;;5033841;28;20210;-69
2021/04/29 08:41:05;;;;;;;13.40;9.87;;;16.10;66.40;;;;;;5034507;28;20551;-70
2021/04/29 08:43:32;;;;;;;14.90;10.07;;;16.20;66.30;;;;;;5028727;28;20733;-70
2021/04/29 08:45:58;;;;;;;13.33;10.13;;;16.50;66.20;;;;;;5029421;28;20257;-69
2021/04/29 08:48:25;;;;;;;11.97;9.77;;;16.80;65.50;;;;;;5028408;28;20222;-71
2021/04/29 08:50:52;;;;;;;13.63;10.30;;;17.20;63.40;;;;;;5025959;28;20752;-69
2021/04/29 08:53:20;;;;;;;15.47;9.37;;;17.40;61.40;;;;;;5026592;28;20228;-71
2021/04/29 08:55:46;;;;;;;13.53;9.53;;;17.50;60.90;;;;;;5027359;28;20206;-69
2021/04/29 08:58:13;;;;;;;13.97;9.97;;;17.60;60.70;;;;;;5027658;28;20368;-70
2021/04/29 09:00:39;;;;;;;18.17;11.73;;;17.70;60.00;;;;;;5028795;28;20305;-70
2021/04/29 09:03:06;;;;;;;16.47;9.90;;;18.00;59.40;;;;;;5028022;28;20226;-69
2021/04/29 09:05:33;;;;;;;12.30;10.00;;;18.30;58.90;;;;;;5028624;28;20214;-70
2021/04/29 09:08:01;;;;;;;11.30;9.10;;;18.60;57.70;;;;;;5027157;28;20262;-70
2021/04/29 09:10:30;;;;;;;12.05;9.43;;;18.70;56.20;;;;;;5026417;28;20670;-70
2021/04/29 09:12:58;;;;;;;10.67;8.70;;;18.70;55.80;;;;;;5028959;28;20293;-70
2021/04/29 09:15:28;;;;;;;11.93;9.17;;;18.80;55.40;;;;;;5029513;28;20570;-70
2021/04/29 09:18:09;;;;;;;13.73;8.53;;;18.80;54.70;;;;;;5028107;28;20207;-69
2021/04/29 09:20:49;;;;;;;13.43;8.25;;;19.00;54.60;;;;;;5027537;28;20214;-70
2021/04/29 09:23:18;;;;;;;10.93;8.07;;;19.20;53.70;;;;;;5031786;28;20194;-69
2021/04/29 09:25:53;;;;;;;11.02;7.80;;;19.40;52.60;;;;;;5031464;28;20207;-70
2021/04/29 09:28:20;;;;;;;9.88;7.93;;;19.40;51.60;;;;;;5033428;28;20202;-69
2021/04/29 09:30:47;;;;;;;10.45;7.60;;;19.40;51.10;;;;;;5033608;28;20294;-69
2021/04/29 09:33:13;;;;;;;11.48;7.60;;;19.30;50.70;;;;;;5032988;28;20260;-70
2021/04/29 09:35:40;;;;;;;12.43;7.88;;;19.20;50.60;;;;;;5033356;28;20210;-69
2021/04/29 09:38:11;;;;;;;10.27;7.75;;;19.00;50.70;;;;;;5032627;28;20547;-70
2021/04/29 09:40:41;;;;;;;12.43;8.20;;;18.80;50.70;;;;;;5032830;28;20214;-70
2021/04/29 09:43:09;;;;;;;12.05;8.18;;;18.70;50.70;;;;;;5032399;28;20256;-69
2021/04/29 09:45:36;;;;;;;9.68;7.35;;;18.70;50.70;;;;;;5032621;28;20297;-70
2021/04/29 09:48:04;;;;;;;11.25;7.57;;;18.80;51.20;;;;;;5031959;28;20650;-69
2021/04/29 09:50:33;;;;;;;13.25;9.27;;;18.90;51.10;;;;;;5032830;28;20225;-69
2021/04/29 09:53:05;;;;;;;12.60;8.82;;;19.10;50.90;;;;;;5032187;28;20289;-69
2021/04/29 09:55:33;;;;;;;14.68;8.70;;;19.30;50.80;;;;;;5028891;28;20217;-68
2021/04/29 09:58:14;;;;;;;12.73;8.05;;;19.40;50.70;;;;;;5025825;28;20329;-70
2021/04/29 10:00:41;;;;;;;9.88;8.05;;;19.60;50.40;;;;;;5031502;28;20210;-70
2021/04/29 10:03:08;;;;;;;11.15;7.68;;;19.80;50.10;;;;;;5035671;28;20295;-68
2021/04/29 10:05:38;;;;;;;10.18;7.97;;;20.00;49.80;;;;;;5037423;28;20236;-70
2021/04/29 10:08:06;;;;;;;11.15;7.07;;;20.00;49.40;;;;;;5036775;28;20260;-69
2021/04/29 10:10:35;;;;;;;9.50;7.00;;;19.90;49.60;;;;;;5037649;28;20211;-70
2021/04/29 10:13:03;;;;;;;9.20;7.60;;;20.00;51.20;;;;;;5036467;28;20293;-70
2021/04/29 10:15:34;;;;;;;8.73;7.63;;;20.20;51.40;;;;;;5037725;28;20214;-70
2021/04/29 10:18:01;;;;;;;9.23;7.03;;;20.40;49.50;;;;;;5036355;28;20662;-69
2021/04/29 10:20:30;;;;;;;9.05;7.03;;;20.60;49.40;;;;;;5031377;28;20242;-71
2021/04/29 10:22:58;;;;;;;10.63;7.68;;;20.90;49.30;;;;;;5036073;28;20215;-69
2021/04/29 10:25:30;;;;;;;10.25;7.60;;;21.40;48.90;;;;;;5034795;28;20237;-70
2021/04/29 10:27:58;;;;;;;12.07;8.15;;;21.80;48.20;;;;;;5034639;28;20902;-69
2021/04/29 10:30:34;;;;;;;9.90;7.28;;;22.30;47.30;;;;;;5031067;28;20820;-70
2021/04/29 10:33:12;;;;;;;15.98;7.80;;;22.70;46.40;;;;;;5031616;28;20240;-70
2021/04/29 10:35:49;;;;;;;11.68;7.03;;;22.90;45.20;;;;;;5037119;28;20205;-69
2021/04/29 10:38:24;;;;;;;9.82;7.25;;;23.10;44.80;;;;;;5033689;28;20205;-68
2021/04/29 10:40:51;;;;;;;7.72;6.43;;;23.40;45.00;;;;;;5036138;28;20194;-68
2021/04/29 10:43:29;;;;;;;8.90;7.45;;;23.70;44.00;;;;;;5034159;28;20279;-66
2021/04/29 10:45:56;;;;;;;9.35;6.57;;;24.00;43.40;;;;;;5032321;28;20215;-69
2021/04/29 10:48:24;;;;;;;9.73;6.55;;;24.30;42.80;;;;;;5034983;28;20257;-72
2021/04/29 10:50:51;;;;;;;7.57;6.15;;;24.30;42.50;;;;;;5036626;28;20199;-70
2021/04/29 10:53:29;;;;;;;10.57;6.72;;;24.30;42.10;;;;;;5035035;28;20234;-69
2021/04/29 10:56:01;;;;;;;8.68;6.50;;;24.00;42.70;;;;;;5034543;28;20202;-69
2021/04/29 10:58:27;;;;;;;11.35;7.18;;;23.80;41.60;;;;;;5029879;28;20203;-69
2021/04/29 11:01:00;;;;;;;7.32;6.20;;;23.60;42.10;;;;;;5034376;28;20301;-69
2021/04/29 11:03:33;;;;;;;8.88;6.05;;;23.40;42.70;;;;;;5035428;28;20267;-69
2021/04/29 11:06:14;;;;;;;7.28;5.53;;;23.10;42.60;;;;;;5035675;28;20233;-69
2021/04/29 11:08:43;;;;;;;6.72;5.63;;;22.90;43.00;;;;;;5030219;28;20264;-71
2021/04/29 11:11:28;;;;;;;8.10;5.25;;;22.90;43.00;;;;;;5028979;28;20224;-70
2021/04/29 11:14:07;;;;;;;6.80;4.65;;;22.70;43.40;;;;;;5032343;28;20313;-71
2021/04/29 11:16:45;;;;;;;8.15;5.40;;;22.80;43.80;;;;;;5035785;28;20305;-74
2021/04/29 11:19:40;;;;;;;8.13;5.55;;;23.10;43.90;;;;;;5029220;28;20282;-72
2021/04/29 11:22:09;;;;;;;8.10;4.70;;;23.40;43.60;;;;;;5028172;28;20215;-73
2021/04/29 11:24:36;;;;;;;6.53;5.10;;;23.50;43.00;;;;;;5034808;28;20211;-72
2021/04/29 11:27:04;;;;;;;5.50;4.40;;;23.60;43.00;;;;;;5035713;28;20319;-74
2021/04/29 11:29:38;;;;;;;8.05;4.88;;;23.80;42.90;;;;;;5035155;28;20213;-68
2021/04/29 11:32:06;;;;;;;5.93;4.60;;;23.90;43.20;;;;;;5034889;28;20647;-73
2021/04/29 11:34:46;;;;;;;8.18;4.63;;;24.10;43.00;;;;;;5034927;28;20828;-71
2021/04/29 11:37:13;;;;;;;5.05;4.43;;;24.30;42.90;;;;;;5034117;28;20277;-68
2021/04/29 11:39:40;;;;;;;8.80;4.88;;;24.40;41.00;;;;;;5035392;28;20647;-70
2021/04/29 11:42:10;;;;;;;5.53;4.40;;;24.30;40.40;;;;;;5035184;28;20301;-73
2021/04/29 11:44:37;;;;;;;5.28;4.22;;;24.30;40.70;;;;;;5035021;28;20210;-68
2021/04/29 11:47:14;;;;;;;5.70;3.97;;;24.20;43.20;;;;;;5033762;28;20700;-72
2021/04/29 11:49:40;;;;;;;7.10;4.20;;;24.30;42.50;;;;;;5027550;28;20206;-72
2021/04/29 11:52:07;;;;;;;8.60;4.55;;;24.40;41.90;;;;;;5034793;28;20652;-69
2021/04/29 11:54:34;;;;;;;7.25;4.28;;;24.50;40.80;;;;;;5035278;28;20211;-72
2021/04/29 11:57:02;;;;;;;6.35;4.43;;;24.40;40.80;;;;;;5035994;28;20203;-73
2021/04/29 11:59:31;;;;;;;7.20;4.20;;;24.20;40.30;;;;;;5033219;28;20245;-66
2021/04/29 12:01:59;;;;;;;7.45;3.42;;;24.10;39.70;;;;;;5026275;28;20664;-68
2021/04/29 12:04:27;;;;;;;6.07;3.58;;;24.00;38.60;;;;;;5034553;28;20256;-70
2021/04/29 12:06:55;;;;;;;5.65;3.63;;;24.10;38.00;;;;;;5034234;28;20686;-71
2021/04/29 12:09:23;;;;;;;11.27;3.28;;;24.30;38.10;;;;;;5034298;28;20206;-68
2021/04/29 12:11:50;;;;;;;6.32;3.78;;;24.50;38.40;;;;;;5027205;28;20285;-70
2021/04/29 12:14:21;;;;;;;7.93;4.13;;;24.50;37.80;;;;;;5033778;28;20237;-69
2021/04/29 12:16:48;;;;;;;7.80;4.03;;;24.50;38.20;;;;;;5033354;28;20198;-69
2021/04/29 12:19:15;;;;;;;8.80;3.60;;;24.50;38.60;;;;;;5033972;28;20207;-72
2021/04/29 12:21:44;;;;;;;5.40;4.07;;;24.40;39.00;;;;;;5023811;28;20630;-68
2021/04/29 12:24:11;;;;;;;5.72;4.40;;;24.20;40.10;;;;;;5032928;28;20203;-69
2021/04/29 12:26:38;;;;;;;6.78;4.50;;;24.00;40.90;;;;;;5033078;28;20265;-69
2021/04/29 12:29:07;;;;;;;5.25;4.28;;;23.90;41.40;;;;;;5033483;28;20594;-69
2021/04/29 12:31:34;;;;;;;8.57;4.57;;;23.80;41.70;;;;;;5033357;28;20210;-72
2021/04/29 12:34:04;;;;;;;5.88;3.95;;;24.00;42.30;;;;;;5033705;28;20238;-70
2021/04/29 12:36:31;;;;;;;5.95;4.32;;;24.00;42.40;;;;;;5034056;28;20198;-70
2021/04/29 12:38:59;;;;;;;5.10;4.25;;;23.90;42.80;;;;;;5033421;28;20238;-70
2021/04/29 12:41:27;;;;;;;4.82;4.28;;;23.70;43.10;;;;;;5032803;28;20245;-70